Neueste Datei finden, umbenennen und verschieben

26/10/2008 - 17:13 von Hans Muecke | Report spam
Folgendes Problem:

Per wget greife ich auf ein FTP-Verzeichnis zu. Im Verzeichnis sind Dateien
enthalten nach dem Muster

A0_datumuhrzeit.png
A1_datumuhrzeit.png
A2_datumuhrzeit.png
B0_datumuhrzeit.png
B1_datumuhrzeit.png
C0_datumuhrzeit.png
D0_datumuhrzeit.png
E0_datumuhrzeit.png

Mit wget und cron ziehe ich einen Teil der Dateien (und jeweils nur die
Neuesten), z.B.

wget -r -N ftp://server/verz/A0*
wget -r -N ftp://server/verz/A2*
wget -r -N ftp://server/verz/D0*

Womit ich aber nun überfordert bin ...

Ich will die zuletzt heruntergeladenen Dateien zum Beispiel
von "A0_datumuhrzeit.png" in "AO_latest.png" umbenennen und in ein anderes
Verzeichnis kopieren.

Wie geht das?

Danke für die Hilfe!

Talk to you later ... Hans (313 to go)

2008/10/26 15:50
EDDS 261550Z 11003KT CAVOK 12/07 Q1021 NOSIG
 

Lesen sie die antworten

#1 Sascha Hüdepohl
26/10/2008 - 19:04 | Warnen spam
Hans Muecke schrieb:

Ich will die zuletzt heruntergeladenen Dateien zum Beispiel
von "A0_datumuhrzeit.png" in "AO_latest.png" umbenennen und in ein
anderes Verzeichnis kopieren.



Kannst Du ein paar Informationen dazu liefern, woran man die neueste
Datei erkennt?
Wie sie das Format von datumuhrzeit aus?
Sind atime bzw mtime bei den Dateien korrekt?

Gruß
Sascha

Ähnliche fragen